Millsboro, Delaware
Current Conditions -  °F | °C
As of 6:54 PM on Friday 24 Oct 2014 (Local Time) from KGED Reporting Station
Clear Clear  
Wind Chill: 61°   Ceiling: Unl
Heat Index: 61°   Visibility: 10mi
Dew Point: 45°   Wind: 5mph
Humidity: 56%   Direction: 250°WSW
Pressure: 29.89"   Gusts: NA
Location:  38.59°N, 75.29°W
Report Text: KGED 242254Z AUTO 25004KT 10SM CLR 16/07 A2989 RMK AO2 SLP119 T01610072
Loading
Personal Weather Stations






























Interactive Weather Map
Tropical Storm Tracking
New forecast layout! Learn more

10-Day Weather Forecast

Advertisements
Track Severe Weather on mobile